createdAt,value
2023-03-16T00:00:10.595Z,79.76
2023-03-16T00:01:01.379Z,79.76
2023-03-16T00:01:52.258Z,79.76
2023-03-16T00:02:43.076Z,79.65
2023-03-16T00:03:33.982Z,79.76
2023-03-16T00:04:24.772Z,79.76
2023-03-16T00:05:15.566Z,79.86
2023-03-16T00:06:06.342Z,79.80
2023-03-16T00:06:57.141Z,79.80
2023-03-16T00:07:47.925Z,79.80
2023-03-16T00:08:38.727Z,79.80
2023-03-16T00:09:29.482Z,79.90
2023-03-16T00:10:20.271Z,79.90
2023-03-16T00:11:11.061Z,80.00
2023-03-16T00:12:01.841Z,80.00
2023-03-16T00:12:52.628Z,80.11
2023-03-16T00:13:43.409Z,80.11
2023-03-16T00:14:34.206Z,80.21
2023-03-16T00:15:24.992Z,80.21
2023-03-16T00:16:15.815Z,80.21
2023-03-16T00:17:06.582Z,80.32
2023-03-16T00:17:57.382Z,80.42
2023-03-16T00:18:48.170Z,80.42
2023-03-16T00:19:38.959Z,80.52
2023-03-16T00:20:29.743Z,80.52
2023-03-16T00:21:20.537Z,80.42
2023-03-16T00:22:11.323Z,80.56
2023-03-16T00:23:02.115Z,80.56
2023-03-16T00:23:52.921Z,80.56
2023-03-16T00:24:43.698Z,80.35
2023-03-16T00:25:34.486Z,80.35
2023-03-16T00:26:25.277Z,80.35
2023-03-16T00:27:16.088Z,80.35
2023-03-16T00:28:06.860Z,80.35
2023-03-16T00:28:57.641Z,80.35
2023-03-16T00:29:48.431Z,80.35
2023-03-16T00:30:39.189Z,80.35
2023-03-16T00:31:29.984Z,80.35
2023-03-16T00:32:20.759Z,80.35
2023-03-16T00:33:11.552Z,80.35
2023-03-16T00:34:02.314Z,80.39
2023-03-16T00:34:53.134Z,80.49
2023-03-16T00:35:43.993Z,80.49
2023-03-16T00:36:34.739Z,80.60
2023-03-16T00:37:25.593Z,80.60
2023-03-16T00:38:16.318Z,80.60
2023-03-16T00:39:07.181Z,80.60
2023-03-16T00:39:57.907Z,80.60
2023-03-16T00:40:48.674Z,80.60
2023-03-16T00:41:39.466Z,80.60
2023-03-16T00:42:30.261Z,80.60
2023-03-16T00:43:21.044Z,80.49
2023-03-16T00:44:11.844Z,80.49
2023-03-16T00:45:02.624Z,80.49
2023-03-16T00:45:53.417Z,80.63
2023-03-16T00:46:44.183Z,80.63
2023-03-16T00:47:34.969Z,80.74
2023-03-16T00:48:25.759Z,80.74
2023-03-16T00:49:16.564Z,80.74
2023-03-16T00:50:07.340Z,80.84
2023-03-16T00:50:58.111Z,80.94
2023-03-16T00:51:48.897Z,81.05
2023-03-16T00:52:39.684Z,81.15
2023-03-16T00:53:30.494Z,81.26
2023-03-16T00:54:21.287Z,81.36
2023-03-16T00:55:12.069Z,81.60
2023-03-16T00:56:02.904Z,81.71
2023-03-16T00:56:53.794Z,81.81
2023-03-16T00:57:44.588Z,82.03
2023-03-16T00:58:35.367Z,82.13
2023-03-16T00:59:26.175Z,82.23
2023-03-16T01:00:16.958Z,82.23
2023-03-16T01:01:07.839Z,82.34
2023-03-16T01:01:58.616Z,82.44
2023-03-16T01:02:49.456Z,82.44
2023-03-16T01:03:40.205Z,82.54
2023-03-16T01:04:30.992Z,82.54
2023-03-16T01:05:21.782Z,82.54
2023-03-16T01:06:12.555Z,82.54
2023-03-16T01:07:03.338Z,82.54
2023-03-16T01:07:54.132Z,82.54
2023-03-16T01:08:44.927Z,82.54
2023-03-16T01:09:35.713Z,82.54
2023-03-16T01:10:26.721Z,82.65
2023-03-16T01:11:17.679Z,82.65
2023-03-16T01:12:08.473Z,82.75
2023-03-16T01:12:59.256Z,82.75
2023-03-16T01:13:50.042Z,82.75
2023-03-16T01:14:40.832Z,82.75
2023-03-16T01:15:31.633Z,82.86
2023-03-16T01:16:22.478Z,82.86
2023-03-16T01:17:13.237Z,82.86
2023-03-16T01:18:04.047Z,82.86
2023-03-16T01:18:54.799Z,82.86
2023-03-16T01:19:45.599Z,82.86
2023-03-16T01:20:36.363Z,82.86
2023-03-16T01:21:27.156Z,82.86
2023-03-16T01:22:17.936Z,82.86
2023-03-16T01:23:08.722Z,82.86
2023-03-16T01:23:59.513Z,82.86
2023-03-16T01:24:50.332Z,82.86
2023-03-16T01:25:41.080Z,82.86
2023-03-16T01:26:31.852Z,82.86
2023-03-16T01:27:22.641Z,82.86
2023-03-16T01:28:13.425Z,82.96
2023-03-16T01:29:04.212Z,83.00
2023-03-16T01:29:55.003Z,83.00
2023-03-16T01:30:45.806Z,82.96
2023-03-16T01:31:36.590Z,83.00
2023-03-16T01:32:27.417Z,83.00
2023-03-16T01:33:18.168Z,83.00
2023-03-16T01:34:08.966Z,83.00
2023-03-16T01:34:59.748Z,83.00
2023-03-16T01:35:50.580Z,82.89
2023-03-16T01:36:41.331Z,82.89
2023-03-16T01:37:32.129Z,82.89
2023-03-16T01:38:22.904Z,82.89
2023-03-16T01:39:13.695Z,82.86
2023-03-16T01:40:04.472Z,82.79
2023-03-16T01:40:55.242Z,82.75
2023-03-16T01:41:46.019Z,82.75
2023-03-16T01:42:36.827Z,82.68
2023-03-16T01:43:27.617Z,82.68
2023-03-16T01:44:18.407Z,82.65
2023-03-16T01:45:09.186Z,82.58
2023-03-16T01:45:59.984Z,82.68
2023-03-16T01:46:50.743Z,82.65
2023-03-16T01:47:41.521Z,82.68
2023-03-16T01:48:32.301Z,82.68
2023-03-16T01:49:23.103Z,82.79
2023-03-16T01:50:13.892Z,82.79
2023-03-16T01:51:06.266Z,82.68
2023-03-16T01:51:55.732Z,82.68
2023-03-16T01:52:46.519Z,82.68
2023-03-16T01:53:37.310Z,82.68
2023-03-16T01:54:28.141Z,82.68
2023-03-16T01:55:18.924Z,82.68
2023-03-16T01:56:09.682Z,82.68
2023-03-16T01:57:00.467Z,82.79
2023-03-16T01:57:51.250Z,82.79
2023-03-16T01:58:42.028Z,82.79
2023-03-16T01:59:32.814Z,82.79
2023-03-16T02:00:23.706Z,82.79
2023-03-16T02:01:14.544Z,82.79
2023-03-16T02:02:05.277Z,82.79
2023-03-16T02:02:56.052Z,82.79
2023-03-16T02:03:46.849Z,82.79
2023-03-16T02:04:37.660Z,82.89
2023-03-16T02:05:28.528Z,82.89
2023-03-16T02:06:19.349Z,82.89
2023-03-16T02:07:10.113Z,82.89
2023-03-16T02:08:00.902Z,82.89
2023-03-16T02:08:51.692Z,83.00
2023-03-16T02:09:42.491Z,83.00
2023-03-16T02:10:33.303Z,83.10
2023-03-16T02:11:24.067Z,83.10
2023-03-16T02:12:14.874Z,83.10
2023-03-16T02:13:05.656Z,83.10
2023-03-16T02:13:56.445Z,83.00
2023-03-16T02:14:47.234Z,83.00
2023-03-16T02:15:38.058Z,83.00
2023-03-16T02:16:28.811Z,83.10
2023-03-16T02:17:19.602Z,83.10
2023-03-16T02:18:10.395Z,83.10
2023-03-16T02:19:01.182Z,83.10
2023-03-16T02:19:51.958Z,83.10
2023-03-16T02:20:42.758Z,83.10
2023-03-16T02:21:33.522Z,83.10
2023-03-16T02:22:24.306Z,83.10
2023-03-16T02:23:15.094Z,83.10
2023-03-16T02:24:05.900Z,83.10
2023-03-16T02:24:56.685Z,83.10
2023-03-16T02:25:47.487Z,83.10
2023-03-16T02:26:38.252Z,83.10
2023-03-16T02:27:29.040Z,83.20
2023-03-16T02:28:19.846Z,83.20
2023-03-16T02:29:10.658Z,83.20
2023-03-16T02:30:01.473Z,83.25
2023-03-16T02:30:52.266Z,83.25
2023-03-16T02:31:43.013Z,83.25
2023-03-16T02:32:33.857Z,83.25
2023-03-16T02:33:24.590Z,83.35
2023-03-16T02:34:15.363Z,83.35
2023-03-16T02:35:06.152Z,83.45
2023-03-16T02:35:57.016Z,83.45
2023-03-16T02:36:47.752Z,83.45
2023-03-16T02:37:38.537Z,83.45
2023-03-16T02:38:29.308Z,83.45
2023-03-16T02:39:20.097Z,83.45
2023-03-16T02:40:10.873Z,83.45
2023-03-16T02:41:01.667Z,83.45
2023-03-16T02:41:52.444Z,83.56
2023-03-16T02:42:43.475Z,83.45
2023-03-16T02:43:34.262Z,83.45
2023-03-16T02:44:25.047Z,83.56
2023-03-16T02:45:15.836Z,83.56
2023-03-16T02:46:06.688Z,83.56
2023-03-16T02:46:57.424Z,83.56
2023-03-16T02:47:48.217Z,83.56
2023-03-16T02:48:39.011Z,83.56
2023-03-16T02:49:29.816Z,83.56
2023-03-16T02:50:20.625Z,83.56
2023-03-16T02:51:11.419Z,83.56
2023-03-16T02:52:02.146Z,83.56
2023-03-16T02:52:52.940Z,83.56
2023-03-16T02:53:43.723Z,83.66
2023-03-16T02:54:34.530Z,83.66
2023-03-16T02:55:25.295Z,83.66
2023-03-16T02:56:16.087Z,83.66
2023-03-16T02:57:06.852Z,83.66
2023-03-16T02:57:57.643Z,83.66
2023-03-16T02:58:48.424Z,83.66
2023-03-16T02:59:39.208Z,83.66
2023-03-16T03:00:30.340Z,83.66
2023-03-16T03:01:21.116Z,83.76
2023-03-16T03:02:11.899Z,83.76
2023-03-16T03:03:02.697Z,83.87
2023-03-16T03:03:53.489Z,83.87
2023-03-16T03:04:44.272Z,83.87
2023-03-16T03:05:35.061Z,83.87
2023-03-16T03:06:25.852Z,83.87
2023-03-16T03:07:16.615Z,83.97
2023-03-16T03:08:07.414Z,83.87
2023-03-16T03:08:58.177Z,83.87
2023-03-16T03:09:48.960Z,83.87
2023-03-16T03:10:39.746Z,83.87
2023-03-16T03:11:30.570Z,83.87
2023-03-16T03:12:21.323Z,83.87
2023-03-16T03:13:12.112Z,83.97
2023-03-16T03:14:02.908Z,83.97
2023-03-16T03:14:53.689Z,83.97
2023-03-16T03:15:44.467Z,83.97
2023-03-16T03:16:35.304Z,83.97
2023-03-16T03:17:26.038Z,84.08
2023-03-16T03:18:16.816Z,84.08
2023-03-16T03:19:07.615Z,84.08
2023-03-16T03:19:58.382Z,84.08
2023-03-16T03:20:49.159Z,84.08
2023-03-16T03:21:39.964Z,83.97
2023-03-16T03:22:30.757Z,83.97
2023-03-16T03:23:21.544Z,83.97
2023-03-16T03:24:12.328Z,83.97
2023-03-16T03:25:03.136Z,83.87
2023-03-16T03:25:53.910Z,83.87
2023-03-16T03:26:44.720Z,83.87
2023-03-16T03:27:35.621Z,83.87
2023-03-16T03:28:26.361Z,83.87
2023-03-16T03:29:17.153Z,83.87
2023-03-16T03:30:07.935Z,83.87
2023-03-16T03:30:58.722Z,83.87
2023-03-16T03:31:49.586Z,83.87
2023-03-16T03:32:40.411Z,83.87
2023-03-16T03:33:31.154Z,83.87
2023-03-16T03:34:21.941Z,83.97
2023-03-16T03:35:12.730Z,83.97
2023-03-16T03:36:03.595Z,83.97
2023-03-16T03:36:54.331Z,84.08
2023-03-16T03:37:45.114Z,84.08
2023-03-16T03:38:35.905Z,84.08
2023-03-16T03:39:26.671Z,83.97
2023-03-16T03:40:17.479Z,83.97
2023-03-16T03:41:08.252Z,83.97
2023-03-16T03:41:59.077Z,83.97
2023-03-16T03:42:49.855Z,83.97
2023-03-16T03:43:40.644Z,83.97
2023-03-16T03:44:31.415Z,84.08
2023-03-16T03:45:22.189Z,84.08
2023-03-16T03:46:13.041Z,84.08
2023-03-16T03:47:03.871Z,84.08
2023-03-16T03:47:54.592Z,84.18
2023-03-16T03:48:45.398Z,84.08
2023-03-16T03:49:36.177Z,84.08
2023-03-16T03:50:27.224Z,84.08
2023-03-16T03:51:18.066Z,84.08
2023-03-16T03:52:08.845Z,84.08
2023-03-16T03:52:59.627Z,84.08
2023-03-16T03:53:50.438Z,84.08
2023-03-16T03:54:41.229Z,84.08
2023-03-16T03:55:32.006Z,83.97
2023-03-16T03:56:22.791Z,83.97
2023-03-16T03:57:13.599Z,83.97
2023-03-16T03:58:04.357Z,83.87
2023-03-16T03:58:55.144Z,83.87
2023-03-16T03:59:45.924Z,83.91
2023-03-16T04:00:36.742Z,83.91
2023-03-16T04:01:27.564Z,83.91
2023-03-16T04:02:18.392Z,83.91
2023-03-16T04:03:09.327Z,83.91
2023-03-16T04:04:00.132Z,83.91
2023-03-16T04:04:50.898Z,83.91
2023-03-16T04:05:41.701Z,83.91
2023-03-16T04:06:32.461Z,83.91
2023-03-16T04:07:23.270Z,83.91
2023-03-16T04:08:14.039Z,84.01
2023-03-16T04:09:04.848Z,83.91
2023-03-16T04:09:55.621Z,84.01
2023-03-16T04:10:46.404Z,84.01
2023-03-16T04:11:37.171Z,84.01
2023-03-16T04:12:27.976Z,84.01
2023-03-16T04:13:18.739Z,84.01
2023-03-16T04:14:09.540Z,84.01
2023-03-16T04:15:00.295Z,84.01
2023-03-16T04:15:51.078Z,84.12
2023-03-16T04:16:41.901Z,84.12
2023-03-16T04:17:32.675Z,84.12
2023-03-16T04:18:23.464Z,84.12
2023-03-16T04:19:14.281Z,84.12
2023-03-16T04:20:05.036Z,84.12
2023-03-16T04:20:55.828Z,84.12
2023-03-16T04:21:46.604Z,84.12
2023-03-16T04:22:37.392Z,84.12
2023-03-16T04:23:28.185Z,84.12
2023-03-16T04:24:18.974Z,84.12
2023-03-16T04:25:11.412Z,84.22
2023-03-16T04:26:00.969Z,84.22
2023-03-16T04:26:51.725Z,84.22
2023-03-16T04:27:42.545Z,84.22
2023-03-16T04:28:33.296Z,84.22
2023-03-16T04:29:24.085Z,84.12
2023-03-16T04:30:14.866Z,84.12
2023-03-16T04:31:05.670Z,84.12
2023-03-16T04:31:56.437Z,84.12
2023-03-16T04:32:47.275Z,84.12
2023-03-16T04:33:38.050Z,84.12
2023-03-16T04:34:28.827Z,84.01
2023-03-16T04:35:19.634Z,84.01
2023-03-16T04:36:10.431Z,83.91
2023-03-16T04:37:01.205Z,83.91
2023-03-16T04:37:51.987Z,83.91
2023-03-16T04:38:42.794Z,83.80
2023-03-16T04:39:33.568Z,83.80
2023-03-16T04:40:24.351Z,83.80
2023-03-16T04:41:15.146Z,83.70
2023-03-16T04:42:05.897Z,83.70
2023-03-16T04:42:56.705Z,83.59
2023-03-16T04:43:47.465Z,83.59
2023-03-16T04:44:38.248Z,83.45
2023-03-16T04:45:29.001Z,83.45
2023-03-16T04:46:19.804Z,83.45
2023-03-16T04:47:10.496Z,83.45
2023-03-16T04:48:01.284Z,83.45
2023-03-16T04:48:52.034Z,83.35
2023-03-16T04:49:42.801Z,83.35
2023-03-16T04:50:33.605Z,83.35
2023-03-16T04:51:24.393Z,83.25
2023-03-16T04:52:15.192Z,83.25
2023-03-16T04:53:05.959Z,83.25
2023-03-16T04:53:56.724Z,83.25
2023-03-16T04:54:47.514Z,83.14
2023-03-16T04:55:38.301Z,83.14
2023-03-16T04:56:29.118Z,83.14
2023-03-16T04:57:19.890Z,83.14
2023-03-16T04:58:10.696Z,83.04
2023-03-16T04:59:01.452Z,83.04
2023-03-16T04:59:52.131Z,83.04
2023-03-16T05:00:42.879Z,82.93
2023-03-16T05:01:33.712Z,82.82
2023-03-16T05:02:24.486Z,82.82
2023-03-16T05:03:15.218Z,82.72
2023-03-16T05:04:05.977Z,82.72
2023-03-16T05:04:56.759Z,82.62
2023-03-16T05:05:47.693Z,82.62
2023-03-16T05:06:38.528Z,82.51
2023-03-16T05:07:29.309Z,82.48
2023-03-16T05:08:20.092Z,82.48
2023-03-16T05:09:10.884Z,82.37
2023-03-16T05:10:01.684Z,82.37
2023-03-16T05:10:52.623Z,82.37
2023-03-16T05:11:43.510Z,82.37
2023-03-16T05:12:34.336Z,82.37
2023-03-16T05:13:25.414Z,82.37
2023-03-16T05:14:16.178Z,82.37
2023-03-16T05:15:06.980Z,82.37
2023-03-16T05:15:57.913Z,82.27
2023-03-16T05:16:48.729Z,82.27
2023-03-16T05:17:39.597Z,82.17
2023-03-16T05:18:30.453Z,82.17
2023-03-16T05:19:21.336Z,82.17
2023-03-16T05:20:14.621Z,82.17
2023-03-16T05:21:03.034Z,82.17
2023-03-16T05:21:53.912Z,82.06
2023-03-16T05:22:44.774Z,82.06
2023-03-16T05:23:35.642Z,81.96
2023-03-16T05:24:26.525Z,81.96
2023-03-16T05:25:17.463Z,81.96
2023-03-16T05:26:08.268Z,81.85
2023-03-16T05:26:59.149Z,81.85
2023-03-16T05:27:50.026Z,81.75
2023-03-16T05:28:40.908Z,81.75
2023-03-16T05:29:31.744Z,81.65
2023-03-16T05:30:22.636Z,81.65
2023-03-16T05:31:13.625Z,81.65
2023-03-16T05:32:04.466Z,81.65
2023-03-16T05:32:55.452Z,81.65
2023-03-16T05:33:46.317Z,81.65
2023-03-16T05:34:37.213Z,81.65
2023-03-16T05:35:28.201Z,81.65
2023-03-16T05:36:19.081Z,81.65
2023-03-16T05:37:09.964Z,81.65
2023-03-16T05:38:00.852Z,81.65
2023-03-16T05:38:51.740Z,81.54
2023-03-16T05:39:42.608Z,81.43
2023-03-16T05:40:33.506Z,81.43
2023-03-16T05:41:24.376Z,81.33
2023-03-16T05:42:15.253Z,81.33
2023-03-16T05:43:06.178Z,81.23
2023-03-16T05:43:57.076Z,81.23
2023-03-16T05:44:47.929Z,81.23
2023-03-16T05:45:38.805Z,81.23
2023-03-16T05:46:29.739Z,81.23
2023-03-16T05:47:20.583Z,81.23
2023-03-16T05:48:11.477Z,81.23
2023-03-16T05:49:02.370Z,81.12
2023-03-16T05:49:53.272Z,81.12
2023-03-16T05:50:44.169Z,81.02
2023-03-16T05:51:35.045Z,81.02
2023-03-16T05:52:25.964Z,81.02
2023-03-16T05:53:16.851Z,80.91
2023-03-16T05:54:07.707Z,80.91
2023-03-16T05:54:58.581Z,80.91
2023-03-16T05:55:49.483Z,80.91
2023-03-16T05:56:40.371Z,80.81
2023-03-16T05:57:31.250Z,80.81
2023-03-16T05:58:22.144Z,80.81
2023-03-16T05:59:13.057Z,80.91
2023-03-16T06:00:03.939Z,80.81
2023-03-16T06:00:54.813Z,80.81
2023-03-16T06:01:45.709Z,80.71
2023-03-16T06:02:36.629Z,80.71
2023-03-16T06:03:27.491Z,80.60
2023-03-16T06:04:18.461Z,80.71
2023-03-16T06:05:09.336Z,80.71
2023-03-16T06:06:00.249Z,80.60
2023-03-16T06:06:51.163Z,80.50
2023-03-16T06:07:42.075Z,80.60
2023-03-16T06:08:32.969Z,80.60
2023-03-16T06:09:23.870Z,80.60
2023-03-16T06:10:14.787Z,80.50
2023-03-16T06:11:05.711Z,80.40
2023-03-16T06:11:56.597Z,80.40
2023-03-16T06:12:47.492Z,80.29
2023-03-16T06:13:38.417Z,80.19
2023-03-16T06:14:29.340Z,80.19
2023-03-16T06:15:20.227Z,80.08
2023-03-16T06:16:11.220Z,80.08
2023-03-16T06:17:02.061Z,79.98
2023-03-16T06:17:52.983Z,79.94
2023-03-16T06:18:43.892Z,79.83
2023-03-16T06:19:34.804Z,79.83
2023-03-16T06:20:25.746Z,79.83
2023-03-16T06:21:16.654Z,79.73
2023-03-16T06:22:07.629Z,79.73
2023-03-16T06:22:58.476Z,79.63
2023-03-16T06:23:49.403Z,79.52
2023-03-16T06:24:40.302Z,79.52
2023-03-16T06:25:31.243Z,79.42
2023-03-16T06:26:22.155Z,79.32
2023-03-16T06:27:13.077Z,79.21
2023-03-16T06:28:03.985Z,79.11
2023-03-16T06:28:54.891Z,79.00
2023-03-16T06:29:45.834Z,79.00
2023-03-16T06:30:36.708Z,79.00
2023-03-16T06:31:27.786Z,78.90
2023-03-16T06:32:18.652Z,78.80
2023-03-16T06:33:09.654Z,78.69
2023-03-16T06:34:00.530Z,78.69
2023-03-16T06:34:51.433Z,78.55
2023-03-16T06:35:42.364Z,78.55
2023-03-16T06:36:33.243Z,78.45
2023-03-16T06:37:24.139Z,78.34
2023-03-16T06:38:15.057Z,78.24
2023-03-16T06:39:05.977Z,78.24
2023-03-16T06:39:56.885Z,78.24
2023-03-16T06:40:47.790Z,78.03
2023-03-16T06:41:38.708Z,78.03
2023-03-16T06:42:29.612Z,77.93
2023-03-16T06:43:20.520Z,77.83
2023-03-16T06:44:11.437Z,77.72
2023-03-16T06:45:02.380Z,77.58
2023-03-16T06:45:53.378Z,77.58
2023-03-16T06:46:44.251Z,77.48
2023-03-16T06:47:35.165Z,77.48
2023-03-16T06:48:26.064Z,77.37
2023-03-16T06:49:16.987Z,77.27
2023-03-16T06:50:07.896Z,77.16
2023-03-16T06:50:58.812Z,77.06
2023-03-16T06:51:49.712Z,76.95
2023-03-16T06:52:40.633Z,76.75
2023-03-16T06:53:31.541Z,76.75
2023-03-16T06:54:22.448Z,76.61
2023-03-16T06:55:13.348Z,76.51
2023-03-16T06:56:04.271Z,76.40
2023-03-16T06:56:55.168Z,76.19
2023-03-16T06:57:46.131Z,76.19
2023-03-16T06:58:37.023Z,76.09
2023-03-16T06:59:27.922Z,76.09
2023-03-16T07:00:18.852Z,75.98
2023-03-16T07:01:09.831Z,76.09
2023-03-16T07:02:00.696Z,76.09
2023-03-16T07:02:51.626Z,75.98
2023-03-16T07:03:42.561Z,75.88
2023-03-16T07:04:33.519Z,75.74
2023-03-16T07:05:24.406Z,75.64
2023-03-16T07:06:15.307Z,75.64
2023-03-16T07:07:06.227Z,75.64
2023-03-16T07:07:57.127Z,75.64
2023-03-16T07:08:48.030Z,75.54
2023-03-16T07:09:41.531Z,75.54
2023-03-16T07:10:30.064Z,75.43
2023-03-16T07:11:20.464Z,75.43
2023-03-16T07:12:11.377Z,75.43
2023-03-16T07:13:02.282Z,75.40
2023-03-16T07:13:53.191Z,75.29
2023-03-16T07:14:44.101Z,75.19
2023-03-16T07:15:35.033Z,75.09
2023-03-16T07:16:25.943Z,74.98
2023-03-16T07:17:16.836Z,74.88
2023-03-16T07:18:07.754Z,74.77
2023-03-16T07:18:58.691Z,74.67
2023-03-16T07:19:49.567Z,74.57
2023-03-16T07:20:40.484Z,74.57
2023-03-16T07:21:31.385Z,74.46
2023-03-16T07:22:22.305Z,74.36
2023-03-16T07:23:13.216Z,74.26
2023-03-16T07:24:04.130Z,74.05
2023-03-16T07:24:55.055Z,74.05
2023-03-16T07:25:45.965Z,74.01
2023-03-16T07:26:36.876Z,73.91
2023-03-16T07:27:27.783Z,73.91
2023-03-16T07:28:18.689Z,73.70
2023-03-16T07:29:09.611Z,73.60
2023-03-16T07:30:00.556Z,73.49
2023-03-16T07:31:03.081Z,73.49
2023-03-16T07:31:43.370Z,73.39
2023-03-16T07:32:33.087Z,73.28
2023-03-16T07:33:23.936Z,73.18
2023-03-16T07:34:14.850Z,73.18
2023-03-16T07:35:05.745Z,73.18
2023-03-16T07:35:56.722Z,73.18
2023-03-16T07:36:47.612Z,73.18
2023-03-16T07:37:38.551Z,73.08
2023-03-16T07:38:29.413Z,72.94
2023-03-16T07:39:20.319Z,72.74
2023-03-16T07:40:11.223Z,72.53
2023-03-16T07:41:02.155Z,72.53
2023-03-16T07:41:53.053Z,72.42
2023-03-16T07:42:44.008Z,72.42
2023-03-16T07:43:34.979Z,72.42
2023-03-16T07:44:25.908Z,72.32
2023-03-16T07:45:16.804Z,72.22
2023-03-16T07:46:07.765Z,72.11
2023-03-16T07:46:58.651Z,72.01
2023-03-16T07:47:49.561Z,72.01
2023-03-16T07:48:40.601Z,71.87
2023-03-16T07:49:31.507Z,71.77
2023-03-16T07:50:22.372Z,71.77
2023-03-16T07:51:13.283Z,71.66
2023-03-16T07:52:04.161Z,71.56
2023-03-16T07:52:55.103Z,71.56
2023-03-16T07:53:46.018Z,71.45
2023-03-16T07:54:36.925Z,71.32
2023-03-16T07:55:27.832Z,71.11
2023-03-16T07:56:18.763Z,70.90
2023-03-16T07:57:09.667Z,70.70
2023-03-16T07:58:00.582Z,70.59
2023-03-16T07:58:51.543Z,70.39
2023-03-16T07:59:42.445Z,70.18
2023-03-16T08:00:33.364Z,69.97
2023-03-16T08:01:24.375Z,69.87
2023-03-16T08:02:15.337Z,69.84
2023-03-16T08:03:06.317Z,69.84
2023-03-16T08:03:57.224Z,69.73
2023-03-16T08:04:48.120Z,69.53
2023-03-16T08:05:39.031Z,69.21
2023-03-16T08:06:29.961Z,69.11
2023-03-16T08:07:20.857Z,69.11
2023-03-16T08:08:11.778Z,69.01
2023-03-16T08:09:02.715Z,69.01
2023-03-16T08:09:53.634Z,68.66
2023-03-16T08:10:44.552Z,68.46
2023-03-16T08:11:35.466Z,68.46
2023-03-16T08:12:26.414Z,68.56
2023-03-16T08:13:17.320Z,68.46
2023-03-16T08:14:08.243Z,68.35
2023-03-16T08:14:59.190Z,68.25
2023-03-16T08:15:50.163Z,68.12
2023-03-16T08:16:41.073Z,68.12
2023-03-16T08:17:31.984Z,68.01
2023-03-16T08:18:22.930Z,68.01
2023-03-16T08:19:13.881Z,68.01
2023-03-16T08:20:04.811Z,67.98
2023-03-16T08:20:55.799Z,67.98
2023-03-16T08:22:00.785Z,67.88
2023-03-16T08:22:38.649Z,67.88
2023-03-16T08:23:28.352Z,67.88
2023-03-16T08:24:19.269Z,67.74
2023-03-16T08:25:10.206Z,67.43
2023-03-16T08:26:01.163Z,67.22
2023-03-16T08:26:52.032Z,66.91
2023-03-16T08:27:43.368Z,66.81
2023-03-16T08:28:33.687Z,66.78
2023-03-16T08:29:24.568Z,66.78
2023-03-16T08:30:15.493Z,66.67
2023-03-16T08:31:06.467Z,66.47
2023-03-16T08:31:57.355Z,66.26
2023-03-16T08:32:48.299Z,66.26
2023-03-16T08:33:39.206Z,66.26
2023-03-16T08:34:30.155Z,66.13
2023-03-16T08:35:21.090Z,66.23
2023-03-16T08:36:12.120Z,66.33
2023-03-16T08:37:03.024Z,66.33
2023-03-16T08:37:53.976Z,66.23
2023-03-16T08:38:50.925Z,66.10
2023-03-16T08:39:35.859Z,65.79
2023-03-16T08:40:26.900Z,65.69
2023-03-16T08:41:17.880Z,65.69
2023-03-16T08:42:08.830Z,65.55
2023-03-16T08:42:59.767Z,65.24
2023-03-16T08:43:52.268Z,65.03
2023-03-16T08:44:41.420Z,64.83
2023-03-16T08:45:32.346Z,64.59
2023-03-16T08:46:23.294Z,64.49
2023-03-16T08:47:14.251Z,64.25
2023-03-16T08:48:05.181Z,64.02
2023-03-16T08:48:56.117Z,63.47
2023-03-16T08:49:47.105Z,62.79
2023-03-16T08:50:38.046Z,61.68
2023-03-16T08:51:28.992Z,60.36
2023-03-16T08:52:19.951Z,59.08
2023-03-16T08:53:10.897Z,57.76
2023-03-16T08:54:01.869Z,56.56
2023-03-16T08:55:03.117Z,55.28
2023-03-16T08:55:44.792Z,53.85
2023-03-16T08:56:34.556Z,52.48
2023-03-16T08:57:25.512Z,51.10
2023-03-16T08:58:16.472Z,50.04
2023-03-16T08:59:10.460Z,48.80
2023-03-16T08:59:59.378Z,48.27
2023-03-16T09:00:50.572Z,47.51
2023-03-16T09:01:40.135Z,46.78
2023-03-16T09:02:31.057Z,46.04
2023-03-16T09:03:22.004Z,45.29
2023-03-16T09:04:13.014Z,44.54
2023-03-16T09:05:03.973Z,43.87
2023-03-16T09:05:54.921Z,42.70
2023-03-16T09:06:47.603Z,41.42
2023-03-16T09:07:36.946Z,40.38
2023-03-16T09:08:27.902Z,39.45
2023-03-16T09:09:18.868Z,38.64
2023-03-16T09:10:09.836Z,38.23
2023-03-16T09:11:00.795Z,37.71
2023-03-16T09:11:51.775Z,37.29
2023-03-16T09:12:42.763Z,36.23
2023-03-16T09:13:33.704Z,35.39
2023-03-16T09:14:24.665Z,34.55
2023-03-16T09:15:15.651Z,33.83
2023-03-16T09:16:06.679Z,32.89
2023-03-16T09:16:57.593Z,32.26
2023-03-16T09:17:48.576Z,31.35
2023-03-16T09:18:39.523Z,30.93
2023-03-16T09:19:37.714Z,30.74
2023-03-16T09:20:34.813Z,30.63
2023-03-16T09:21:13.388Z,30.54
2023-03-16T09:22:03.074Z,30.66
2023-03-16T09:22:54.002Z,30.69
2023-03-16T09:23:44.940Z,31.34
2023-03-16T09:24:35.889Z,32.40
2023-03-16T09:25:26.837Z,33.47
2023-03-16T09:26:17.768Z,34.22
2023-03-16T09:27:08.759Z,35.10
2023-03-16T09:27:59.633Z,35.85
2023-03-16T09:28:50.571Z,36.59
2023-03-16T09:29:41.511Z,37.55
2023-03-16T09:30:32.463Z,38.30
2023-03-16T09:31:23.446Z,38.95
2023-03-16T09:32:14.355Z,39.57
2023-03-16T09:33:05.174Z,39.89
2023-03-16T09:33:56.072Z,40.12
2023-03-16T09:34:47.006Z,40.77
2023-03-16T09:35:38.070Z,41.39
2023-03-16T09:36:28.967Z,41.70
2023-03-16T09:37:19.934Z,42.02
2023-03-16T09:38:10.860Z,42.25
2023-03-16T09:39:01.783Z,42.55
2023-03-16T09:39:55.861Z,42.88
2023-03-16T09:40:46.944Z,43.20
2023-03-16T09:41:34.294Z,43.20
2023-03-16T09:42:25.217Z,43.00
2023-03-16T09:43:16.157Z,42.61
2023-03-16T09:44:07.092Z,42.71
2023-03-16T09:44:58.021Z,42.83
2023-03-16T09:45:49.007Z,42.83
2023-03-16T09:46:39.894Z,42.85
2023-03-16T09:47:30.828Z,42.85
2023-03-16T09:48:21.808Z,42.88
2023-03-16T09:49:12.727Z,43.08
2023-03-16T09:50:03.672Z,43.18
2023-03-16T09:50:55.137Z,43.20
2023-03-16T09:51:45.585Z,43.20
2023-03-16T09:52:36.523Z,43.00
2023-03-16T09:53:27.452Z,43.41
2023-03-16T09:54:18.401Z,43.61
2023-03-16T09:55:09.330Z,43.30
2023-03-16T09:56:00.267Z,43.41
2023-03-16T09:56:51.226Z,43.63
2023-03-16T09:57:42.139Z,43.94
2023-03-16T09:58:33.114Z,44.14
2023-03-16T09:59:24.027Z,44.32
2023-03-16T10:00:14.969Z,44.43
2023-03-16T10:01:06.003Z,44.12
2023-03-16T10:01:56.887Z,44.12
2023-03-16T10:02:47.819Z,43.91
2023-03-16T10:03:38.826Z,43.71
2023-03-16T10:04:29.719Z,43.49
2023-03-16T10:05:20.669Z,43.29
2023-03-16T10:06:32.600Z,43.29
2023-03-16T10:07:23.800Z,43.26
2023-03-16T10:07:54.007Z,42.96
2023-03-16T10:08:44.967Z,42.85
2023-03-16T10:09:35.914Z,42.04
2023-03-16T10:10:27.154Z,41.83
2023-03-16T10:11:32.170Z,41.41
2023-03-16T10:12:08.454Z,41.30
2023-03-16T10:13:00.148Z,41.41
2023-03-16T10:13:50.520Z,41.10
2023-03-16T10:14:41.496Z,41.20
2023-03-16T10:15:32.398Z,41.00
2023-03-16T10:16:23.406Z,40.98
2023-03-16T10:17:14.292Z,40.98
2023-03-16T10:18:05.237Z,41.06
2023-03-16T10:18:56.200Z,40.33
2023-03-16T10:19:47.117Z,39.28
2023-03-16T10:20:38.061Z,38.43
2023-03-16T10:21:28.982Z,38.00
2023-03-16T10:22:19.914Z,37.80
2023-03-16T10:23:10.854Z,37.29
2023-03-16T10:24:01.807Z,37.39
2023-03-16T10:24:52.749Z,37.39
2023-03-16T10:25:43.724Z,37.21
2023-03-16T10:26:34.636Z,36.71
2023-03-16T10:27:25.572Z,37.12
2023-03-16T10:28:16.514Z,37.04
2023-03-16T10:29:07.475Z,37.46
2023-03-16T10:29:58.410Z,37.68
2023-03-16T10:30:49.338Z,37.90
2023-03-16T10:31:40.351Z,38.33
2023-03-16T10:32:31.310Z,38.76
2023-03-16T10:33:22.217Z,39.18
2023-03-16T10:34:13.184Z,39.59
2023-03-16T10:35:04.092Z,39.71
2023-03-16T10:35:55.062Z,39.81
2023-03-16T10:36:45.978Z,39.83
2023-03-16T10:37:36.897Z,39.94
2023-03-16T10:38:27.842Z,39.73
2023-03-16T10:39:18.778Z,39.73
2023-03-16T10:40:09.721Z,39.85
2023-03-16T10:41:00.703Z,39.95
2023-03-16T10:41:51.605Z,39.95
2023-03-16T10:42:42.538Z,40.16
2023-03-16T10:43:33.472Z,40.46
2023-03-16T10:44:24.424Z,40.67
2023-03-16T10:45:15.363Z,40.36
2023-03-16T10:46:06.371Z,39.95
2023-03-16T10:46:57.339Z,39.54
2023-03-16T10:47:48.232Z,39.64
2023-03-16T10:48:39.188Z,39.44
2023-03-16T10:49:30.152Z,39.75
2023-03-16T10:50:21.196Z,39.95
2023-03-16T10:51:12.135Z,39.64
2023-03-16T10:52:03.240Z,39.54
2023-03-16T10:52:54.098Z,39.12
2023-03-16T10:53:45.041Z,39.01
2023-03-16T10:54:35.985Z,39.22